Time;durP1;ratioP1;P1;durP2;ratioP2;P2;SDS_P1;SDS_P2;PMS_P1;PMS_P2;Temp;Humidity;BMP_temperature;BMP_pressure;BME280_temperature;BME280_humidity;BME280_pressure;Samples;Min_cycle;Max_cycle;Signal;HPM_P1;HPM_P2
2022/07/27 00:00:03;;;;;;;9.57;5.40;;;27.70;99.90;;;;;;4131142;28;20053;-63
2022/07/27 00:02:16;;;;;;;9.02;5.60;;;27.70;99.90;;;;;;4133236;28;20517;-63
2022/07/27 00:04:20;;;;;;;7.15;5.07;;;27.70;99.90;;;;;;4130016;28;20054;-63
2022/07/27 00:06:25;;;;;;;7.80;5.43;;;27.80;99.90;;;;;;4130831;28;20568;-63
2022/07/27 00:08:34;;;;;;;7.13;4.53;;;27.80;99.90;;;;;;4126294;28;20063;-62
2022/07/27 00:10:38;;;;;;;7.53;4.55;;;27.90;99.90;;;;;;4130090;28;20352;-61
2022/07/27 00:12:43;;;;;;;6.70;4.85;;;27.80;99.90;;;;;;4130069;28;20042;-63
2022/07/27 00:14:52;;;;;;;9.50;5.15;;;27.90;99.90;;;;;;4130989;28;20544;-63
2022/07/27 00:16:56;;;;;;;7.78;4.68;;;28.00;99.90;;;;;;4133171;28;20083;-63
2022/07/27 00:19:01;;;;;;;7.50;4.13;;;28.10;99.90;;;;;;4132456;28;20050;-63
2022/07/27 00:21:13;;;;;;;7.60;5.03;;;28.10;99.90;;;;;;4131356;28;20547;-63
2022/07/27 00:23:18;;;;;;;8.95;4.70;;;28.20;99.90;;;;;;4136050;28;20085;-64
2022/07/27 00:25:23;;;;;;;7.13;4.85;;;28.40;99.90;;;;;;4137191;28;20044;-64
2022/07/27 00:27:30;;;;;;;6.47;4.68;;;28.50;99.90;;;;;;4136816;28;20049;-63
2022/07/27 00:29:36;;;;;;;7.30;4.90;;;28.50;99.90;;;;;;4135809;28;20153;-63
2022/07/27 00:31:41;;;;;;;8.65;4.72;;;28.60;99.90;;;;;;4138933;28;20038;-64
2022/07/27 00:33:50;;;;;;;7.22;4.55;;;28.50;99.90;;;;;;4135523;28;20100;-64
2022/07/27 00:35:54;;;;;;;6.97;4.18;;;28.60;99.90;;;;;;4131487;28;20047;-64
2022/07/27 00:37:59;;;;;;;6.72;4.32;;;28.70;99.90;;;;;;4127506;28;20125;-64
2022/07/27 00:40:08;;;;;;;6.18;4.20;;;28.80;99.90;;;;;;4125056;28;20097;-64
2022/07/27 00:42:12;;;;;;;5.95;4.03;;;28.80;99.90;;;;;;4127616;28;20057;-64
2022/07/27 00:44:27;;;;;;;9.05;4.47;;;28.90;99.90;;;;;;4128006;28;20064;-64
2022/07/27 00:46:34;;;;;;;4.75;4.10;;;28.90;99.90;;;;;;4127027;28;20042;-63
2022/07/27 00:48:39;;;;;;;6.88;4.05;;;29.00;99.90;;;;;;4128044;28;20066;-64
2022/07/27 00:50:44;;;;;;;6.20;3.85;;;29.00;99.90;;;;;;4125533;28;20038;-64
2022/07/27 00:52:49;;;;;;;6.05;4.03;;;29.10;99.90;;;;;;4127630;28;20512;-64
2022/07/27 00:54:54;;;;;;;9.10;4.20;;;29.10;99.90;;;;;;4126205;28;20038;-64
2022/07/27 00:56:59;;;;;;;5.70;3.80;;;29.20;99.90;;;;;;4127205;28;20050;-63
2022/07/27 00:59:05;;;;;;;5.78;4.10;;;29.20;99.90;;;;;;4124853;28;20042;-63
2022/07/27 01:01:14;;;;;;;8.75;4.53;;;29.30;99.90;;;;;;4127467;28;20082;-63
2022/07/27 01:03:18;;;;;;;8.80;5.20;;;29.40;99.90;;;;;;4128051;28;20042;-63
2022/07/27 01:05:34;;;;;;;5.43;3.83;;;29.40;99.90;;;;;;4069504;29;20074;-63
2022/07/27 01:07:45;;;;;;;5.57;3.60;;;29.40;99.90;;;;;;4124144;28;20054;-63
2022/07/27 01:09:57;;;;;;;5.38;4.00;;;29.50;99.90;;;;;;4126872;28;21105;-63
2022/07/27 01:12:04;;;;;;;5.72;4.07;;;29.50;99.90;;;;;;4126829;28;20042;-63
2022/07/27 01:14:09;;;;;;;6.43;4.18;;;29.60;99.90;;;;;;4127865;28;20043;-63
2022/07/27 01:16:14;;;;;;;8.32;4.85;;;29.60;99.90;;;;;;4127571;28;20047;-63
2022/07/27 01:18:29;;;;;;;11.70;5.20;;;29.60;99.90;;;;;;4127528;28;20144;-63
2022/07/27 01:20:36;;;;;;;10.48;5.80;;;29.60;99.90;;;;;;4128460;28;20414;-63
2022/07/27 01:22:40;;;;;;;10.77;6.10;;;29.70;99.90;;;;;;4121704;28;20046;-64
2022/07/27 01:24:49;;;;;;;8.50;5.50;;;29.70;99.90;;;;;;4124063;28;20042;-64
2022/07/27 01:26:53;;;;;;;10.02;5.53;;;29.70;99.90;;;;;;4126304;28;20494;-64
2022/07/27 01:28:58;;;;;;;10.95;5.72;;;29.80;99.90;;;;;;4126593;28;20157;-64
2022/07/27 01:31:05;;;;;;;8.88;5.18;;;29.80;99.90;;;;;;4127289;28;20046;-64
2022/07/27 01:33:10;;;;;;;7.50;4.80;;;29.90;99.90;;;;;;4126940;28;20500;-63
2022/07/27 01:35:14;;;;;;;10.10;4.88;;;29.80;99.90;;;;;;4127360;28;20050;-64
2022/07/27 01:37:21;;;;;;;10.07;4.80;;;29.80;99.90;;;;;;4124676;28;20061;-63
2022/07/27 01:39:26;;;;;;;6.13;4.47;;;29.90;99.90;;;;;;4127030;28;20350;-63
2022/07/27 01:41:33;;;;;;;7.03;3.88;;;30.00;99.90;;;;;;4116878;28;20050;-63
2022/07/27 01:43:38;;;;;;;8.65;4.78;;;30.10;99.90;;;;;;4123124;28;20172;-63
2022/07/27 01:45:42;;;;;;;6.40;3.95;;;30.10;99.90;;;;;;4126691;28;20445;-63
2022/07/27 01:47:47;;;;;;;8.77;4.85;;;30.20;99.90;;;;;;4127596;28;20341;-63
2022/07/27 01:49:54;;;;;;;12.10;4.78;;;30.20;99.90;;;;;;4126457;28;20057;-63
2022/07/27 01:51:58;;;;;;;11.65;4.47;;;30.20;99.90;;;;;;4124472;28;20065;-63
2022/07/27 01:54:03;;;;;;;10.30;4.50;;;30.20;99.90;;;;;;4123040;28;20034;-63
2022/07/27 01:56:10;;;;;;;7.38;4.40;;;30.30;99.90;;;;;;4122085;28;20069;-62
2022/07/27 01:58:15;;;;;;;6.13;4.10;;;30.30;99.90;;;;;;4122358;28;20089;-63
2022/07/27 02:00:19;;;;;;;6.95;4.80;;;30.30;99.90;;;;;;4117321;28;20050;-63
2022/07/27 02:02:31;;;;;;;7.15;4.72;;;30.20;99.90;;;;;;4126644;28;20050;-63
2022/07/27 02:04:36;;;;;;;7.13;4.15;;;30.20;99.90;;;;;;4124395;28;20493;-63
2022/07/27 02:06:40;;;;;;;6.63;4.43;;;30.20;99.90;;;;;;4119439;28;20049;-63
2022/07/27 02:08:47;;;;;;;7.47;4.15;;;30.20;99.90;;;;;;4122988;28;20054;-63
2022/07/27 02:13:08;;;;;;;6.88;3.70;;;30.30;99.90;;;;;;4125743;28;20084;-63
2022/07/27 02:15:27;;;;;;;5.80;3.72;;;30.40;99.90;;;;;;4118894;28;20096;-62
2022/07/27 02:17:45;;;;;;;4.95;3.90;;;30.40;99.90;;;;;;4122435;28;20390;-63
2022/07/27 02:19:50;;;;;;;6.43;3.65;;;30.50;99.90;;;;;;4125310;28;20042;-63
2022/07/27 02:21:56;;;;;;;7.93;3.83;;;30.60;99.90;;;;;;4119590;28;20057;-63
2022/07/27 02:24:02;;;;;;;5.45;4.22;;;30.60;99.90;;;;;;4121142;28;20192;-63
2022/07/27 02:26:07;;;;;;;7.97;3.97;;;30.60;99.90;;;;;;4125353;28;20066;-62
2022/07/27 02:28:15;;;;;;;7.60;4.25;;;30.80;99.90;;;;;;4125754;28;20082;-63
2022/07/27 02:30:20;;;;;;;7.65;4.10;;;30.90;99.90;;;;;;4124476;28;20034;-63
2022/07/27 02:32:24;;;;;;;6.93;4.20;;;31.00;99.90;;;;;;4125318;28;20046;-63
2022/07/27 02:34:33;;;;;;;5.78;4.00;;;31.00;99.90;;;;;;4126540;28;20062;-63
2022/07/27 02:36:38;;;;;;;7.68;4.28;;;31.10;99.90;;;;;;4149099;28;20057;-63
2022/07/27 02:38:42;;;;;;;5.95;4.20;;;31.10;99.90;;;;;;4125489;28;20050;-62
2022/07/27 02:40:48;;;;;;;6.70;3.78;;;31.20;99.90;;;;;;4125251;28;20125;-63
2022/07/27 02:42:53;;;;;;;6.53;3.90;;;31.30;99.90;;;;;;4125738;28;20045;-63
2022/07/27 02:44:57;;;;;;;4.45;3.20;;;31.30;99.90;;;;;;4125992;28;20109;-63
2022/07/27 02:47:05;;;;;;;5.15;3.83;;;31.40;99.90;;;;;;4124006;28;20046;-62
2022/07/27 02:49:09;;;;;;;5.35;3.67;;;31.60;99.90;;;;;;4126372;28;20085;-64
2022/07/27 02:51:14;;;;;;;6.47;3.70;;;31.60;99.90;;;;;;4126038;28;20061;-64
2022/07/27 02:53:23;;;;;;;5.75;3.63;;;31.70;99.90;;;;;;4122923;28;20046;-64
2022/07/27 02:55:27;;;;;;;5.28;3.70;;;31.80;99.90;;;;;;4126121;28;20036;-64
2022/07/27 02:57:34;;;;;;;5.88;3.80;;;31.90;99.90;;;;;;4125416;28;20073;-64
2022/07/27 02:59:43;;;;;;;8.30;4.03;;;32.00;99.90;;;;;;4123088;28;20456;-64
2022/07/27 03:01:48;;;;;;;9.50;3.92;;;32.10;99.90;;;;;;4126123;28;20054;-64
2022/07/27 03:03:53;;;;;;;4.97;3.75;;;32.00;99.90;;;;;;4126344;28;20519;-64
2022/07/27 03:06:01;;;;;;;5.13;3.22;;;32.10;99.90;;;;;;4123826;28;20109;-64
2022/07/27 03:08:05;;;;;;;6.10;4.00;;;32.00;99.90;;;;;;4125811;28;20069;-64
2022/07/27 03:10:10;;;;;;;5.18;3.38;;;32.10;99.90;;;;;;4125077;28;20052;-65
2022/07/27 03:12:15;;;;;;;7.03;3.60;;;32.20;99.90;;;;;;4125924;28;20065;-64
2022/07/27 03:14:20;;;;;;;5.45;3.45;;;32.30;99.90;;;;;;4124502;28;20092;-63
2022/07/27 03:16:24;;;;;;;5.43;3.70;;;32.30;99.90;;;;;;4125655;28;20513;-63
2022/07/27 03:18:33;;;;;;;5.45;3.55;;;32.40;99.90;;;;;;4127824;28;20509;-64
2022/07/27 03:20:37;;;;;;;7.85;3.55;;;32.50;99.90;;;;;;4123943;28;20046;-64
2022/07/27 03:22:42;;;;;;;8.02;3.83;;;32.50;99.90;;;;;;4127700;28;20659;-64
2022/07/27 03:24:49;;;;;;;3.97;3.35;;;32.70;99.90;;;;;;4124654;28;20085;-64
2022/07/27 03:26:54;;;;;;;3.95;3.55;;;32.80;99.90;;;;;;4127013;28;20114;-64
2022/07/27 03:28:59;;;;;;;5.68;3.35;;;32.80;99.90;;;;;;4123566;28;20050;-64
2022/07/27 03:31:08;;;;;;;6.45;3.60;;;32.80;99.70;;;;;;4125846;28;20051;-64
2022/07/27 03:33:12;;;;;;;4.65;3.35;;;32.90;99.50;;;;;;4125816;28;20065;-64
2022/07/27 03:35:17;;;;;;;5.22;3.10;;;33.00;99.40;;;;;;4127118;28;20180;-65
2022/07/27 03:37:26;;;;;;;6.93;3.75;;;33.00;98.90;;;;;;4125439;28;20695;-64
2022/07/27 03:39:31;;;;;;;7.25;3.28;;;33.10;98.80;;;;;;4126418;28;20416;-64
2022/07/27 03:41:35;;;;;;;4.72;3.38;;;33.20;98.60;;;;;;4126991;28;20062;-65
2022/07/27 03:43:46;;;;;;;4.93;3.08;;;33.30;98.50;;;;;;4126744;28;20054;-64
2022/07/27 03:45:51;;;;;;;4.40;3.50;;;33.40;98.40;;;;;;4124796;28;20046;-64
2022/07/27 03:47:56;;;;;;;5.55;3.63;;;33.40;99.20;;;;;;4127016;28;20042;-65
2022/07/27 03:50:05;;;;;;;5.50;4.15;;;33.40;99.10;;;;;;4126787;28;20042;-65
2022/07/27 03:52:09;;;;;;;8.70;4.63;;;33.40;99.30;;;;;;4128231;28;20046;-65
2022/07/27 03:54:19;;;;;;;5.72;3.45;;;33.40;99.60;;;;;;4129898;28;20070;-65
2022/07/27 03:56:28;;;;;;;5.68;3.97;;;33.30;99.80;;;;;;4111669;28;20058;-65
2022/07/27 03:58:32;;;;;;;4.28;3.85;;;33.20;99.80;;;;;;4129921;28;20416;-65
2022/07/27 04:00:37;;;;;;;6.28;4.00;;;33.20;99.90;;;;;;4130197;28;20409;-65
2022/07/27 04:02:45;;;;;;;7.88;3.92;;;33.30;99.90;;;;;;4130089;28;20057;-65
2022/07/27 04:04:50;;;;;;;8.63;4.50;;;33.40;99.70;;;;;;4129881;28;20085;-65
2022/07/27 04:06:54;;;;;;;6.40;4.07;;;33.40;99.60;;;;;;4129709;28;20556;-65
2022/07/27 04:09:00;;;;;;;7.10;4.00;;;33.40;99.60;;;;;;4129692;28;20476;-65
2022/07/27 04:11:11;;;;;;;6.05;4.50;;;33.40;99.40;;;;;;4113950;28;20078;-64
2022/07/27 04:13:20;;;;;;;5.63;4.10;;;33.50;98.90;;;;;;4113609;28;20051;-64
2022/07/27 04:15:28;;;;;;;5.45;3.83;;;33.50;99.00;;;;;;4113669;28;20096;-64
2022/07/27 04:17:32;;;;;;;5.25;3.70;;;33.70;98.60;;;;;;4122076;28;20058;-64
2022/07/27 04:19:57;;;;;;;8.40;4.10;;;33.70;98.40;;;;;;4129763;28;20096;-64
2022/07/27 04:22:03;;;;;;;7.40;3.85;;;33.70;98.70;;;;;;4129755;28;20101;-64
2022/07/27 04:24:08;;;;;;;6.35;4.30;;;33.70;98.60;;;;;;4129277;28;20496;-64
2022/07/27 04:26:12;;;;;;;5.68;3.78;;;33.90;98.50;;;;;;4133334;28;20084;-64
2022/07/27 04:28:21;;;;;;;6.22;3.53;;;33.90;98.30;;;;;;4145911;28;20046;-64
2022/07/27 04:30:26;;;;;;;4.50;3.60;;;33.90;98.50;;;;;;4145688;28;20287;-64
2022/07/27 04:32:30;;;;;;;5.03;4.00;;;34.00;98.70;;;;;;4145810;28;20034;-64
2022/07/27 04:34:39;;;;;;;5.05;3.45;;;34.00;98.40;;;;;;4145748;28;20524;-64
2022/07/27 04:36:56;;;;;;;6.03;3.55;;;34.10;98.10;;;;;;4145811;28;20053;-64
2022/07/27 04:39:01;;;;;;;6.78;3.65;;;34.00;98.00;;;;;;4145555;28;20050;-64
2022/07/27 04:41:09;;;;;;;4.07;3.55;;;34.00;98.40;;;;;;4145542;28;20610;-64
2022/07/27 04:43:14;;;;;;;5.38;3.60;;;34.10;98.10;;;;;;4145993;28;20456;-64
2022/07/27 04:45:21;;;;;;;5.75;3.72;;;34.00;98.20;;;;;;4145358;28;20049;-64
2022/07/27 04:47:28;;;;;;;5.20;3.30;;;34.10;98.00;;;;;;4136340;28;20070;-64
2022/07/27 04:49:33;;;;;;;7.38;3.47;;;34.10;97.40;;;;;;4129321;28;20046;-64
2022/07/27 04:51:40;;;;;;;4.85;3.75;;;34.30;97.50;;;;;;4129709;28;20046;-64
2022/07/27 04:53:46;;;;;;;5.55;3.15;;;34.40;97.50;;;;;;4159836;28;20056;-64
2022/07/27 04:56:00;;;;;;;3.80;3.10;;;34.50;97.40;;;;;;4127853;28;20240;-64
2022/07/27 04:58:05;;;;;;;4.43;3.67;;;34.40;97.30;;;;;;4129501;28;20060;-64
2022/07/27 05:00:13;;;;;;;3.38;3.05;;;34.30;97.20;;;;;;4129506;28;20057;-65
2022/07/27 05:02:17;;;;;;;4.50;3.58;;;34.20;97.40;;;;;;4128746;28;20737;-65
2022/07/27 05:04:22;;;;;;;7.38;3.45;;;34.10;97.30;;;;;;4128190;28;20100;-64
2022/07/27 05:06:31;;;;;;;4.82;3.67;;;34.10;97.20;;;;;;4129355;28;20054;-64
2022/07/27 05:08:38;;;;;;;3.58;2.92;;;34.30;96.70;;;;;;4128974;28;20057;-63
2022/07/27 05:10:43;;;;;;;3.45;3.13;;;34.50;96.30;;;;;;4128786;28;20109;-63
2022/07/27 05:12:51;;;;;;;4.63;3.00;;;34.40;96.20;;;;;;4128859;28;20152;-63
2022/07/27 05:14:55;;;;;;;6.60;2.90;;;34.50;96.40;;;;;;4127727;28;20143;-64
2022/07/27 05:17:00;;;;;;;4.57;2.92;;;34.50;96.40;;;;;;4129234;28;20236;-64
2022/07/27 05:19:08;;;;;;;4.90;3.45;;;34.40;96.50;;;;;;4128955;28;20129;-64
2022/07/27 05:21:13;;;;;;;5.10;3.00;;;34.40;96.80;;;;;;4128953;28;20082;-64
2022/07/27 05:23:18;;;;;;;3.72;2.97;;;34.50;96.90;;;;;;4128537;28;20141;-63
2022/07/27 05:25:26;;;;;;;3.30;2.83;;;34.50;96.80;;;;;;4128938;28;20114;-63
2022/07/27 05:27:31;;;;;;;6.55;3.40;;;34.40;97.00;;;;;;4143234;28;20163;-64
2022/07/27 05:29:35;;;;;;;4.32;3.10;;;34.30;97.30;;;;;;4144940;28;20061;-64
2022/07/27 05:31:42;;;;;;;5.00;2.95;;;34.30;97.20;;;;;;4144863;28;20050;-64
2022/07/27 05:33:46;;;;;;;3.88;2.88;;;34.40;97.00;;;;;;4145176;28;20274;-64
2022/07/27 05:35:55;;;;;;;6.50;3.53;;;34.50;97.00;;;;;;4145083;28;20041;-63
2022/07/27 05:38:05;;;;;;;3.88;2.97;;;34.50;96.90;;;;;;4144777;28;20054;-63
2022/07/27 05:40:11;;;;;;;4.13;3.05;;;34.40;96.80;;;;;;4144305;28;20049;-63
2022/07/27 05:42:15;;;;;;;4.57;3.22;;;34.50;96.80;;;;;;4143108;28;20049;-64
2022/07/27 05:44:24;;;;;;;5.47;3.30;;;34.60;96.90;;;;;;4143557;28;20057;-63
2022/07/27 05:46:28;;;;;;;4.43;3.00;;;34.70;96.70;;;;;;4143377;28;20260;-63
2022/07/27 05:48:35;;;;;;;5.85;3.28;;;34.80;96.50;;;;;;4112489;28;20054;-63
2022/07/27 05:50:42;;;;;;;4.15;3.22;;;35.00;96.10;;;;;;4112601;28;20051;-63
2022/07/27 05:52:47;;;;;;;5.20;2.58;;;35.10;95.10;;;;;;4112109;28;20047;-63
2022/07/27 05:54:52;;;;;;;7.57;2.97;;;35.20;95.00;;;;;;4128266;28;20092;-64
2022/07/27 05:57:00;;;;;;;5.60;2.70;;;35.20;95.50;;;;;;4128457;28;20043;-63
2022/07/27 05:59:04;;;;;;;5.47;2.97;;;35.20;95.20;;;;;;4128255;28;20053;-63
2022/07/27 06:01:09;;;;;;;4.43;2.65;;;35.10;95.20;;;;;;4128422;28;20173;-63
2022/07/27 06:03:16;;;;;;;4.38;3.10;;;35.20;95.00;;;;;;4127075;28;20046;-63
2022/07/27 06:05:21;;;;;;;3.92;2.65;;;35.10;95.10;;;;;;4128312;28;20070;-63
2022/07/27 06:09:46;;;;;;;3.67;2.75;;;35.20;95.10;;;;;;4127884;28;20109;-63
2022/07/27 06:11:51;;;;;;;6.40;2.63;;;35.40;94.80;;;;;;4128069;28;20335;-63
2022/07/27 06:13:55;;;;;;;4.05;2.35;;;35.60;94.40;;;;;;4127511;28;20465;-63
2022/07/27 06:16:02;;;;;;;3.65;2.75;;;35.60;93.90;;;;;;4126397;28;20062;-63
2022/07/27 06:18:13;;;;;;;4.55;2.90;;;35.50;93.40;;;;;;4128171;28;20054;-63
2022/07/27 06:20:18;;;;;;;6.05;2.55;;;35.50;93.80;;;;;;4127969;28;20054;-63
2022/07/27 06:22:24;;;;;;;4.18;2.72;;;35.60;93.90;;;;;;4127938;28;20058;-63
2022/07/27 06:24:28;;;;;;;3.05;2.20;;;35.60;93.40;;;;;;4127920;28;20046;-63
2022/07/27 06:26:33;;;;;;;3.58;2.30;;;35.50;93.30;;;;;;4133295;28;20064;-63
2022/07/27 06:28:38;;;;;;;3.30;2.47;;;35.70;93.20;;;;;;4143957;28;20041;-63
2022/07/27 06:30:44;;;;;;;5.25;2.58;;;35.70;92.80;;;;;;4143813;28;20543;-63
2022/07/27 06:32:50;;;;;;;6.47;2.50;;;35.80;92.50;;;;;;4144123;28;20049;-62
2022/07/27 06:35:01;;;;;;;2.92;2.40;;;35.80;92.10;;;;;;4144004;28;20049;-63
2022/07/27 06:37:06;;;;;;;3.92;2.40;;;35.70;92.30;;;;;;4143873;28;20042;-62
2022/07/27 06:39:11;;;;;;;4.05;2.38;;;35.80;92.20;;;;;;4144035;28;20087;-62
2022/07/27 06:41:18;;;;;;;3.88;2.58;;;35.90;92.20;;;;;;4143994;28;20295;-63
2022/07/27 06:43:25;;;;;;;7.15;3.35;;;35.90;92.40;;;;;;4143672;28;20216;-63
2022/07/27 06:45:29;;;;;;;3.30;2.38;;;35.80;92.70;;;;;;4143549;28;20037;-63
2022/07/27 06:47:40;;;;;;;3.15;2.40;;;36.00;92.90;;;;;;4134846;28;20046;-63
2022/07/27 06:49:52;;;;;;;5.93;2.30;;;35.90;92.90;;;;;;4127765;28;20069;-63
2022/07/27 06:51:57;;;;;;;10.27;2.50;;;35.90;92.30;;;;;;4127444;28;20394;-63
2022/07/27 06:54:06;;;;;;;3.97;2.53;;;36.00;92.40;;;;;;4127289;28;20043;-63
2022/07/27 06:56:10;;;;;;;3.55;2.30;;;36.10;92.40;;;;;;4127241;28;20050;-62
2022/07/27 06:58:15;;;;;;;2.97;2.10;;;36.30;92.10;;;;;;4127359;28;20046;-62
2022/07/27 07:00:21;;;;;;;3.55;2.60;;;36.40;91.90;;;;;;4125899;28;20540;-63
2022/07/27 07:02:26;;;;;;;3.53;2.17;;;36.40;91.70;;;;;;4158176;28;20041;-63
2022/07/27 07:04:32;;;;;;;3.40;2.40;;;36.40;92.10;;;;;;4127543;28;20351;-63
2022/07/27 07:06:38;;;;;;;3.95;2.83;;;36.40;92.10;;;;;;4127477;28;20105;-63
2022/07/27 07:08:43;;;;;;;3.72;2.38;;;36.40;92.20;;;;;;4126935;28;20431;-63
2022/07/27 07:10:48;;;;;;;5.57;2.70;;;36.50;92.20;;;;;;4127279;28;20536;-63
2022/07/27 07:12:54;;;;;;;3.88;2.75;;;36.50;92.10;;;;;;4126487;28;20584;-63
2022/07/27 07:14:59;;;;;;;5.90;2.97;;;36.40;92.30;;;;;;4127271;28;20046;-63
2022/07/27 07:17:04;;;;;;;3.35;2.85;;;36.50;92.30;;;;;;4127046;28;20042;-63
2022/07/27 07:19:12;;;;;;;3.65;2.58;;;36.50;91.90;;;;;;4127228;28;20070;-63
2022/07/27 07:21:17;;;;;;;3.33;2.50;;;36.50;91.40;;;;;;4127492;28;20480;-64
2022/07/27 07:23:22;;;;;;;4.78;2.88;;;36.60;91.40;;;;;;4127382;28;20469;-64
2022/07/27 07:25:31;;;;;;;4.63;2.78;;;36.60;91.40;;;;;;4126843;28;20058;-64
2022/07/27 07:27:35;;;;;;;4.13;2.60;;;36.50;91.00;;;;;;4141936;28;20053;-64
2022/07/27 07:29:40;;;;;;;2.88;2.13;;;36.40;91.30;;;;;;4143308;28;20066;-63
2022/07/27 07:31:49;;;;;;;2.80;2.35;;;36.30;90.80;;;;;;4143452;28;20053;-63
2022/07/27 07:33:53;;;;;;;3.80;2.47;;;36.10;90.50;;;;;;4143183;28;20520;-64
2022/07/27 07:35:58;;;;;;;2.88;2.30;;;36.00;90.00;;;;;;4143617;28;20145;-64
2022/07/27 07:38:16;;;;;;;5.00;2.20;;;36.10;90.20;;;;;;4108846;28;20407;-64
2022/07/27 07:40:21;;;;;;;3.03;2.42;;;36.30;90.30;;;;;;4143037;28;20141;-64
2022/07/27 07:43:04;;;;;;;3.67;2.22;;;36.20;90.00;;;;;;4142755;28;20053;-64
2022/07/27 07:45:11;;;;;;;4.15;2.30;;;36.10;90.10;;;;;;4142737;28;20060;-64
2022/07/27 07:47:15;;;;;;;3.75;2.50;;;36.20;89.80;;;;;;4137197;28;20046;-64
2022/07/27 07:49:21;;;;;;;4.10;2.17;;;36.30;89.80;;;;;;4127806;28;20035;-63
2022/07/27 07:51:44;;;;;;;3.90;2.30;;;36.30;90.00;;;;;;4127020;28;20042;-63
2022/07/27 07:53:48;;;;;;;3.10;2.28;;;36.40;89.60;;;;;;4126878;28;20102;-63
2022/07/27 07:55:58;;;;;;;2.67;2.13;;;36.50;88.60;;;;;;4126985;28;20110;-63
2022/07/27 07:58:07;;;;;;;5.45;2.30;;;36.50;88.70;;;;;;4127005;28;20054;-63
2022/07/27 08:00:12;;;;;;;3.28;2.00;;;36.60;89.00;;;;;;4123351;28;20046;-62
2022/07/27 08:02:19;;;;;;;2.97;2.00;;;36.60;88.40;;;;;;4112383;28;20046;-63
2022/07/27 08:04:26;;;;;;;3.13;2.20;;;36.70;88.50;;;;;;4113584;28;20545;-63
2022/07/27 08:06:30;;;;;;;3.85;2.58;;;36.70;88.60;;;;;;4118322;28;20093;-64
2022/07/27 08:08:35;;;;;;;3.90;2.42;;;36.50;88.70;;;;;;4122929;28;20046;-63
2022/07/27 08:10:40;;;;;;;2.80;2.03;;;36.40;88.90;;;;;;4123993;28;20038;-63
2022/07/27 08:12:45;;;;;;;3.30;2.20;;;36.30;89.40;;;;;;4124172;28;20061;-63
2022/07/27 08:14:50;;;;;;;3.40;2.10;;;36.20;90.10;;;;;;4123469;28;20051;-63
2022/07/27 08:16:57;;;;;;;3.95;2.42;;;36.10;89.30;;;;;;4123962;28;20141;-63
2022/07/27 08:19:01;;;;;;;3.38;2.13;;;36.00;89.70;;;;;;4123926;28;20409;-63
2022/07/27 08:21:06;;;;;;;3.03;2.20;;;36.00;90.20;;;;;;4123560;28;20505;-62
2022/07/27 08:23:13;;;;;;;5.60;2.40;;;35.90;90.40;;;;;;4119361;28;20141;-62
2022/07/27 08:25:17;;;;;;;3.17;2.20;;;36.00;90.80;;;;;;4111970;28;20061;-62
2022/07/27 08:27:22;;;;;;;2.60;1.92;;;36.00;90.60;;;;;;4123529;28;20081;-63
2022/07/27 08:29:28;;;;;;;2.50;2.30;;;36.00;90.60;;;;;;4123685;28;20100;-64
2022/07/27 08:31:39;;;;;;;2.80;2.45;;;36.00;90.50;;;;;;4125247;28;20046;-63
2022/07/27 08:33:54;;;;;;;3.38;2.50;;;36.00;90.30;;;;;;4126815;28;20043;-63
2022/07/27 08:36:02;;;;;;;3.60;2.20;;;35.80;90.00;;;;;;4126815;28;20398;-61
2022/07/27 08:38:08;;;;;;;3.30;2.30;;;35.90;89.20;;;;;;4126805;28;20043;-61
2022/07/27 08:40:13;;;;;;;4.47;2.53;;;35.90;88.80;;;;;;4129340;28;20342;-61
2022/07/27 08:42:42;;;;;;;3.45;2.40;;;35.80;87.20;;;;;;4110636;28;20065;-62
2022/07/27 08:44:51;;;;;;;3.78;2.22;;;35.70;87.10;;;;;;4111456;28;20462;-62
2022/07/27 08:46:56;;;;;;;5.28;2.20;;;35.70;87.20;;;;;;4110149;28;20046;-61
2022/07/27 08:49:06;;;;;;;3.55;2.15;;;35.50;86.90;;;;;;4110536;28;20057;-62
2022/07/27 08:51:13;;;;;;;3.33;2.38;;;35.40;86.20;;;;;;4110550;28;20059;-64
2022/07/27 08:53:17;;;;;;;3.40;2.15;;;35.40;85.90;;;;;;4110617;28;20047;-62
2022/07/27 08:55:27;;;;;;;5.07;2.50;;;35.40;86.70;;;;;;4078651;29;20051;-61
2022/07/27 08:57:33;;;;;;;4.32;2.30;;;35.50;87.20;;;;;;4110475;28;20050;-61
2022/07/27 08:59:37;;;;;;;5.50;2.53;;;35.60;87.30;;;;;;4110850;28;20055;-61
2022/07/27 09:01:47;;;;;;;4.15;2.90;;;35.60;88.40;;;;;;4110877;28;20343;-61
2022/07/27 09:03:52;;;;;;;5.60;2.85;;;35.50;89.30;;;;;;4110617;28;20082;-61
2022/07/27 09:05:57;;;;;;;5.20;2.67;;;35.60;89.60;;;;;;4110216;28;20711;-61
2022/07/27 09:08:14;;;;;;;3.72;2.35;;;35.60;90.00;;;;;;4110143;28;20062;-61
2022/07/27 09:10:32;;;;;;;3.90;2.75;;;35.70;89.80;;;;;;4110659;28;20133;-61
2022/07/27 09:12:36;;;;;;;4.20;3.03;;;35.50;90.00;;;;;;4110429;28;20050;-61
2022/07/27 09:17:37;;;;;;;3.53;2.85;;;35.40;90.20;;;;;;4110448;28;20506;-61
2022/07/27 09:19:56;;;;;;;3.65;2.67;;;35.50;90.40;;;;;;4114319;28;20532;-61
2022/07/27 09:22:04;;;;;;;3.45;3.00;;;35.50;90.30;;;;;;4131088;28;20130;-61
2022/07/27 09:24:13;;;;;;;3.70;2.60;;;35.50;90.40;;;;;;4133061;28;20608;-63
2022/07/27 09:26:39;;;;;;;4.13;2.50;;;35.50;90.40;;;;;;4134220;28;20042;-61
2022/07/27 09:28:45;;;;;;;4.68;2.60;;;35.50;90.60;;;;;;4125131;28;20050;-61
2022/07/27 09:30:49;;;;;;;4.15;2.92;;;35.50;90.50;;;;;;4139713;28;20052;-61
2022/07/27 09:33:05;;;;;;;11.63;3.40;;;35.40;90.60;;;;;;4174688;28;20453;-64
2022/07/27 09:35:18;;;;;;;8.35;3.00;;;35.40;90.90;;;;;;4143845;28;20107;-62
2022/07/27 09:37:24;;;;;;;5.25;3.00;;;35.50;90.90;;;;;;4143740;28;20052;-63
2022/07/27 09:39:30;;;;;;;3.30;2.80;;;35.60;90.80;;;;;;4143732;28;20384;-64
2022/07/27 09:41:45;;;;;;;5.80;3.08;;;35.50;91.00;;;;;;4134267;28;20053;-67
2022/07/27 09:43:53;;;;;;;5.68;2.95;;;35.50;91.20;;;;;;4130630;28;20050;-63
2022/07/27 09:46:37;;;;;;;5.07;2.55;;;35.50;91.20;;;;;;4126341;28;20525;-64
2022/07/27 09:48:42;;;;;;;7.10;2.92;;;35.70;91.00;;;;;;4126712;28;20088;-63
2022/07/27 09:51:00;;;;;;;6.07;2.42;;;35.60;90.90;;;;;;4127247;28;20557;-63
2022/07/27 09:53:29;;;;;;;3.42;2.78;;;35.50;91.10;;;;;;4132992;28;20038;-63
2022/07/27 09:55:55;;;;;;;3.40;2.78;;;35.50;91.30;;;;;;4126598;28;20052;-63
2022/07/27 09:58:01;;;;;;;4.30;2.95;;;35.50;91.60;;;;;;4130884;28;20060;-64
2022/07/27 10:00:10;;;;;;;4.07;3.17;;;35.50;91.30;;;;;;4142854;28;20220;-65
2022/07/27 10:02:17;;;;;;;6.53;3.10;;;35.40;91.50;;;;;;4125071;28;20054;-64
2022/07/27 10:04:22;;;;;;;4.13;2.85;;;35.40;91.50;;;;;;4126573;28;20042;-63
2022/07/27 10:06:28;;;;;;;6.15;3.10;;;35.40;91.50;;;;;;4125591;28;20052;-64
2022/07/27 10:08:46;;;;;;;5.80;3.03;;;35.30;91.70;;;;;;4126303;28;20105;-64
2022/07/27 10:10:51;;;;;;;8.10;3.33;;;35.20;91.20;;;;;;4126492;28;20085;-62
2022/07/27 10:12:55;;;;;;;5.50;2.90;;;35.10;91.20;;;;;;4126825;28;20027;-65
2022/07/27 10:15:00;;;;;;;7.45;3.15;;;35.10;91.20;;;;;;4127712;28;20405;-65
2022/07/27 10:17:05;;;;;;;5.97;3.00;;;35.00;91.40;;;;;;4136168;28;20064;-63
2022/07/27 10:19:49;;;;;;;5.40;2.97;;;35.00;91.30;;;;;;4133528;28;20057;-63
2022/07/27 10:21:56;;;;;;;5.10;2.88;;;35.10;91.20;;;;;;4127376;28;20050;-63
2022/07/27 10:24:03;;;;;;;5.60;3.00;;;35.10;91.40;;;;;;4129314;28;20084;-63
2022/07/27 10:26:24;;;;;;;7.30;3.22;;;35.10;91.80;;;;;;4133529;28;20160;-65
2022/07/27 10:28:29;;;;;;;4.93;2.90;;;35.00;92.10;;;;;;4130200;28;20586;-64
2022/07/27 10:30:34;;;;;;;8.65;3.25;;;34.90;92.80;;;;;;4129275;28;20050;-64
2022/07/27 10:32:42;;;;;;;8.43;3.58;;;34.90;92.50;;;;;;4132058;28;20512;-62
2022/07/27 10:34:50;;;;;;;6.07;3.53;;;34.80;92.40;;;;;;4128064;28;20082;-63
2022/07/27 10:36:54;;;;;;;7.65;3.00;;;34.60;92.30;;;;;;4132521;28;20080;-62
2022/07/27 10:39:04;;;;;;;5.25;3.20;;;34.60;92.50;;;;;;4129040;28;20421;-62
2022/07/27 10:41:29;;;;;;;4.80;2.97;;;34.50;92.30;;;;;;4125001;28;20042;-61
2022/07/27 10:43:34;;;;;;;4.63;3.22;;;34.50;92.60;;;;;;4126505;28;20049;-63
2022/07/27 10:45:44;;;;;;;5.45;3.22;;;34.50;92.80;;;;;;4122950;28;20133;-63
2022/07/27 10:48:05;;;;;;;5.50;3.15;;;34.40;92.70;;;;;;4126552;28;20045;-62
2022/07/27 10:50:28;;;;;;;6.55;4.03;;;34.30;92.90;;;;;;4127097;28;20126;-62
2022/07/27 10:52:47;;;;;;;7.80;3.97;;;34.20;93.30;;;;;;4126258;28;20559;-65
2022/07/27 10:54:55;;;;;;;4.88;3.40;;;34.10;93.20;;;;;;4150063;28;20059;-64
2022/07/27 10:57:05;;;;;;;5.45;4.22;;;34.00;93.40;;;;;;4123516;28;20580;-64
2022/07/27 10:59:10;;;;;;;8.65;4.40;;;33.90;93.90;;;;;;4126737;28;20050;-63
2022/07/27 11:01:16;;;;;;;7.13;4.38;;;33.80;94.20;;;;;;4125726;28;20046;-64
2022/07/27 11:03:23;;;;;;;7.45;4.38;;;33.70;94.30;;;;;;4126611;28;20046;-64
2022/07/27 11:05:27;;;;;;;8.57;5.45;;;33.70;94.60;;;;;;4126785;28;20081;-63
2022/07/27 11:07:52;;;;;;;10.48;4.90;;;33.60;94.70;;;;;;4126808;28;20050;-64
2022/07/27 11:10:17;;;;;;;13.90;6.28;;;33.50;94.90;;;;;;4124286;28;20077;-65